This is the latest recevied weather packets stored in our database for station/object PY2KO-13. If no packets are shown the sender has not sent any weather packets the latest 10 day(s).
| Time | Temp. | Humidity | Pressure | Rain* | Wind** | Luminosity | Snow |
|---|---|---|---|---|---|---|---|
| 1788437705 | 17.22° C | 81% | 1020.3 hPa | - | - | - | - |
| 1788434105 | 16.11° C | 89% | 1020.6 hPa | - | - | - | - |
| 1788432305 | 15.56° C | 92% | 1020.5 hPa | - | - | - | - |
| 1788430505 | 15.56° C | 94% | 1020.6 hPa | - | - | - | - |
| 1788426905 | 15° C | 96% | 1020.2 hPa | - | - | - | - |
| 1788425105 | 15° C | 98% | 1020.1 hPa | - | - | - | - |
| 1788423305 | 15° C | 94% | 1019.8 hPa | - | - | - | - |
| 1788421505 | 15.56° C | 93% | 1019.6 hPa | - | - | - | - |
| 1788419704 | 15.56° C | 95% | 1019.8 hPa | - | - | - | - |
| 1788416105 | 15° C | 95% | 1020.1 hPa | - | - | - | - |
| 1788412505 | 15.56° C | 92% | 1020.5 hPa | - | - | - | - |
| 1788410705 | 15.56° C | 92% | 1020.5 hPa | - | - | - | - |
| 1788408904 | 15.56° C | 90% | 1021 hPa | - | - | - | - |
| 1788407104 | 15.56° C | 92% | 1021.2 hPa | - | - | - | - |
| 1788405305 | 16.11° C | 91% | 1021.4 hPa | - | - | - | - |
| 1788403505 | 16.11° C | 89% | 1021.7 hPa | - | - | - | - |
| 1788380105 | 18.33° C | 75% | 1020.9 hPa | - | - | - | - |
| 1788378305 | 18.89° C | 72% | 1020.6 hPa | - | - | - | - |
| 1788374705 | 19.44° C | 69% | 1020 hPa | - | - | - | - |
| 1788369305 | 21.67° C | 54% | 1019.7 hPa | - | - | - | - |
| 1788358505 | 21.67° C | 55% | 1021 hPa | - | - | - | - |
| 1788354905 | 19.44° C | 66% | 1021.5 hPa | - | - | - | - |
| 1788351305 | 18.33° C | 72% | 1021.3 hPa | - | - | - | - |
| 1788347705 | 17.22° C | 84% | 1021 hPa | - | - | - | - |
| 1788344105 | 16.67° C | 95% | 1020.4 hPa | - | - | - | - |
* Rain since midnight (hover to see other rain measurements)
** Current wind speed in m/s (hover to see current wind gust speed)